sensor_id;sensor_type;location;lat;lon;timestamp;P1;durP1;ratioP1;P2;durP2;ratioP2
62929;SDS011;49036;42.782;23.108;2022-12-11T00:02:02;6.85;;;3.13;;
62929;SDS011;49036;42.782;23.108;2022-12-11T00:04:28;7.38;;;2.10;;
62929;SDS011;49036;42.782;23.108;2022-12-11T00:06:54;5.45;;;2.00;;
62929;SDS011;49036;42.782;23.108;2022-12-11T00:11:45;11.80;;;4.80;;
62929;SDS011;49036;42.782;23.108;2022-12-11T00:14:11;12.20;;;5.65;;
62929;SDS011;49036;42.782;23.108;2022-12-11T00:16:38;14.15;;;6.38;;
62929;SDS011;49036;42.782;23.108;2022-12-11T00:21:29;12.38;;;6.38;;
62929;SDS011;49036;42.782;23.108;2022-12-11T00:26:20;11.30;;;5.45;;
62929;SDS011;49036;42.782;23.108;2022-12-11T00:31:12;9.32;;;2.17;;
62929;SDS011;49036;42.782;23.108;2022-12-11T00:33:42;6.43;;;2.33;;
62929;SDS011;49036;42.782;23.108;2022-12-11T00:36:12;6.57;;;2.53;;
62929;SDS011;49036;42.782;23.108;2022-12-11T00:38:40;5.25;;;2.17;;
62929;SDS011;49036;42.782;23.108;2022-12-11T00:43:31;5.63;;;2.15;;
62929;SDS011;49036;42.782;23.108;2022-12-11T00:48:22;11.70;;;2.42;;
62929;SDS011;49036;42.782;23.108;2022-12-11T00:53:12;5.78;;;1.90;;
62929;SDS011;49036;42.782;23.108;2022-12-11T00:55:39;5.20;;;1.80;;
62929;SDS011;49036;42.782;23.108;2022-12-11T00:58:05;7.63;;;1.80;;
62929;SDS011;49036;42.782;23.108;2022-12-11T01:00:31;7.20;;;2.35;;
62929;SDS011;49036;42.782;23.108;2022-12-11T01:02:57;5.38;;;2.10;;
62929;SDS011;49036;42.782;23.108;2022-12-11T01:07:48;7.50;;;3.10;;
62929;SDS011;49036;42.782;23.108;2022-12-11T01:10:14;4.05;;;1.98;;
62929;SDS011;49036;42.782;23.108;2022-12-11T01:12:52;7.20;;;2.40;;
62929;SDS011;49036;42.782;23.108;2022-12-11T01:15:22;9.10;;;2.50;;
62929;SDS011;49036;42.782;23.108;2022-12-11T01:17:50;4.40;;;1.70;;
62929;SDS011;49036;42.782;23.108;2022-12-11T01:22:41;4.07;;;2.47;;
62929;SDS011;49036;42.782;23.108;2022-12-11T01:25:07;4.47;;;1.67;;
62929;SDS011;49036;42.782;23.108;2022-12-11T01:27:36;1.73;;;1.00;;
62929;SDS011;49036;42.782;23.108;2022-12-11T01:30:03;1.95;;;1.02;;
62929;SDS011;49036;42.782;23.108;2022-12-11T01:32:32;2.05;;;0.90;;
62929;SDS011;49036;42.782;23.108;2022-12-11T01:34:59;3.08;;;1.25;;
62929;SDS011;49036;42.782;23.108;2022-12-11T01:39:50;1.42;;;0.68;;
62929;SDS011;49036;42.782;23.108;2022-12-11T01:42:18;0.85;;;0.73;;
62929;SDS011;49036;42.782;23.108;2022-12-11T01:49:36;0.98;;;0.85;;
62929;SDS011;49036;42.782;23.108;2022-12-11T01:52:09;0.60;;;0.60;;
62929;SDS011;49036;42.782;23.108;2022-12-11T01:54:39;1.40;;;0.45;;
62929;SDS011;49036;42.782;23.108;2022-12-11T01:57:06;0.50;;;0.50;;
62929;SDS011;49036;42.782;23.108;2022-12-11T01:59:34;0.98;;;0.57;;
62929;SDS011;49036;42.782;23.108;2022-12-11T02:02:16;2.08;;;0.63;;
62929;SDS011;49036;42.782;23.108;2022-12-11T02:04:45;2.50;;;0.88;;
62929;SDS011;49036;42.782;23.108;2022-12-11T02:07:12;0.98;;;0.70;;
62929;SDS011;49036;42.782;23.108;2022-12-11T02:15:08;3.30;;;0.60;;
62929;SDS011;49036;42.782;23.108;2022-12-11T02:17:43;0.82;;;0.82;;
62929;SDS011;49036;42.782;23.108;2022-12-11T02:23:32;0.50;;;0.50;;
62929;SDS011;49036;42.782;23.108;2022-12-11T02:29:25;1.90;;;0.60;;
62929;SDS011;49036;42.782;23.108;2022-12-11T02:32:02;0.50;;;0.50;;
62929;SDS011;49036;42.782;23.108;2022-12-11T02:34:34;0.47;;;0.47;;
62929;SDS011;49036;42.782;23.108;2022-12-11T02:37:06;2.90;;;0.40;;
62929;SDS011;49036;42.782;23.108;2022-12-11T02:39:37;1.23;;;0.70;;
62929;SDS011;49036;42.782;23.108;2022-12-11T02:42:04;0.50;;;0.50;;
62929;SDS011;49036;42.782;23.108;2022-12-11T02:44:31;0.50;;;0.50;;
62929;SDS011;49036;42.782;23.108;2022-12-11T02:46:58;1.23;;;0.80;;
62929;SDS011;49036;42.782;23.108;2022-12-11T02:49:25;0.40;;;0.40;;
62929;SDS011;49036;42.782;23.108;2022-12-11T02:51:52;0.38;;;0.38;;
62929;SDS011;49036;42.782;23.108;2022-12-11T02:54:20;0.40;;;0.40;;
62929;SDS011;49036;42.782;23.108;2022-12-11T02:56:55;0.43;;;0.43;;
62929;SDS011;49036;42.782;23.108;2022-12-11T02:59:35;0.40;;;0.40;;
62929;SDS011;49036;42.782;23.108;2022-12-11T03:02:03;3.42;;;0.60;;
62929;SDS011;49036;42.782;23.108;2022-12-11T03:04:29;0.40;;;0.40;;
62929;SDS011;49036;42.782;23.108;2022-12-11T03:06:57;0.70;;;0.70;;
62929;SDS011;49036;42.782;23.108;2022-12-11T03:09:26;0.70;;;0.70;;
62929;SDS011;49036;42.782;23.108;2022-12-11T03:14:18;2.33;;;0.75;;
62929;SDS011;49036;42.782;23.108;2022-12-11T03:19:44;2.35;;;1.15;;
62929;SDS011;49036;42.782;23.108;2022-12-11T03:22:19;1.40;;;0.60;;
62929;SDS011;49036;42.782;23.108;2022-12-11T03:29:53;5.45;;;1.20;;
62929;SDS011;49036;42.782;23.108;2022-12-11T03:32:25;1.40;;;0.85;;
62929;SDS011;49036;42.782;23.108;2022-12-11T03:35:16;0.70;;;0.70;;
62929;SDS011;49036;42.782;23.108;2022-12-11T03:37:47;6.43;;;1.08;;
62929;SDS011;49036;42.782;23.108;2022-12-11T03:40:15;0.73;;;0.52;;
62929;SDS011;49036;42.782;23.108;2022-12-11T03:42:44;1.15;;;0.80;;
62929;SDS011;49036;42.782;23.108;2022-12-11T03:45:11;0.70;;;0.70;;
62929;SDS011;49036;42.782;23.108;2022-12-11T03:47:38;0.73;;;0.73;;
62929;SDS011;49036;42.782;23.108;2022-12-11T03:50:06;1.27;;;0.90;;
62929;SDS011;49036;42.782;23.108;2022-12-11T03:52:33;1.73;;;1.00;;
62929;SDS011;49036;42.782;23.108;2022-12-11T03:55:02;1.98;;;1.10;;
62929;SDS011;49036;42.782;23.108;2022-12-11T03:57:31;2.13;;;1.05;;
62929;SDS011;49036;42.782;23.108;2022-12-11T03:59:59;3.28;;;1.05;;
62929;SDS011;49036;42.782;23.108;2022-12-11T04:04:50;2.00;;;0.80;;
62929;SDS011;49036;42.782;23.108;2022-12-11T04:07:15;1.23;;;0.73;;
62929;SDS011;49036;42.782;23.108;2022-12-11T04:12:06;2.72;;;0.90;;
62929;SDS011;49036;42.782;23.108;2022-12-11T04:14:31;1.08;;;0.93;;
62929;SDS011;49036;42.782;23.108;2022-12-11T04:17:16;1.02;;;1.00;;
62929;SDS011;49036;42.782;23.108;2022-12-11T04:20:02;3.08;;;1.08;;
62929;SDS011;49036;42.782;23.108;2022-12-11T04:22:47;3.35;;;1.00;;
62929;SDS011;49036;42.782;23.108;2022-12-11T04:25:31;1.20;;;1.00;;
62929;SDS011;49036;42.782;23.108;2022-12-11T04:30:23;3.35;;;1.02;;
62929;SDS011;49036;42.782;23.108;2022-12-11T04:32:52;2.38;;;1.33;;
62929;SDS011;49036;42.782;23.108;2022-12-11T04:35:18;1.90;;;1.48;;
62929;SDS011;49036;42.782;23.108;2022-12-11T04:37:44;2.72;;;1.23;;
62929;SDS011;49036;42.782;23.108;2022-12-11T04:42:37;2.20;;;1.40;;
62929;SDS011;49036;42.782;23.108;2022-12-11T04:47:29;1.70;;;1.15;;
62929;SDS011;49036;42.782;23.108;2022-12-11T04:52:20;3.43;;;2.10;;
62929;SDS011;49036;42.782;23.108;2022-12-11T04:57:11;1.77;;;1.48;;
62929;SDS011;49036;42.782;23.108;2022-12-11T05:02:02;1.70;;;1.45;;
62929;SDS011;49036;42.782;23.108;2022-12-11T05:07:00;2.65;;;1.40;;
62929;SDS011;49036;42.782;23.108;2022-12-11T05:11:51;4.65;;;1.58;;
62929;SDS011;49036;42.782;23.108;2022-12-11T05:16:43;4.30;;;1.85;;
62929;SDS011;49036;42.782;23.108;2022-12-11T05:21:34;1.80;;;1.42;;
62929;SDS011;49036;42.782;23.108;2022-12-11T05:23:59;1.70;;;1.35;;
62929;SDS011;49036;42.782;23.108;2022-12-11T05:26:25;2.85;;;1.13;;
62929;SDS011;49036;42.782;23.108;2022-12-11T05:31:18;3.88;;;1.80;;
62929;SDS011;49036;42.782;23.108;2022-12-11T05:33:45;2.05;;;1.33;;
62929;SDS011;49036;42.782;23.108;2022-12-11T05:36:16;3.75;;;1.67;;
62929;SDS011;49036;42.782;23.108;2022-12-11T05:38:46;3.00;;;1.58;;
62929;SDS011;49036;42.782;23.108;2022-12-11T05:43:38;6.47;;;2.10;;
62929;SDS011;49036;42.782;23.108;2022-12-11T05:48:37;6.07;;;1.77;;
62929;SDS011;49036;42.782;23.108;2022-12-11T05:51:04;4.90;;;1.35;;
62929;SDS011;49036;42.782;23.108;2022-12-11T05:53:31;6.30;;;2.33;;
62929;SDS011;49036;42.782;23.108;2022-12-11T05:56:01;2.50;;;1.55;;
62929;SDS011;49036;42.782;23.108;2022-12-11T05:58:31;6.53;;;2.60;;
62929;SDS011;49036;42.782;23.108;2022-12-11T06:00:57;3.90;;;1.80;;
62929;SDS011;49036;42.782;23.108;2022-12-11T06:05:48;5.40;;;1.60;;
62929;SDS011;49036;42.782;23.108;2022-12-11T06:10:45;3.30;;;1.70;;
62929;SDS011;49036;42.782;23.108;2022-12-11T06:13:12;5.60;;;2.30;;
62929;SDS011;49036;42.782;23.108;2022-12-11T06:15:38;2.20;;;1.58;;
62929;SDS011;49036;42.782;23.108;2022-12-11T06:20:30;3.75;;;1.85;;
62929;SDS011;49036;42.782;23.108;2022-12-11T06:22:56;10.52;;;2.05;;
62929;SDS011;49036;42.782;23.108;2022-12-11T06:27:47;7.22;;;1.85;;
62929;SDS011;49036;42.782;23.108;2022-12-11T06:32:38;6.63;;;3.80;;
62929;SDS011;49036;42.782;23.108;2022-12-11T06:37:29;12.50;;;3.28;;
62929;SDS011;49036;42.782;23.108;2022-12-11T06:42:19;4.22;;;2.10;;
62929;SDS011;49036;42.782;23.108;2022-12-11T06:47:10;2.08;;;1.50;;
62929;SDS011;49036;42.782;23.108;2022-12-11T06:52:01;6.43;;;2.00;;
62929;SDS011;49036;42.782;23.108;2022-12-11T06:56:52;9.15;;;2.38;;
62929;SDS011;49036;42.782;23.108;2022-12-11T07:01:43;6.22;;;2.55;;
62929;SDS011;49036;42.782;23.108;2022-12-11T07:06:34;2.08;;;1.52;;
62929;SDS011;49036;42.782;23.108;2022-12-11T07:11:27;6.32;;;1.40;;
62929;SDS011;49036;42.782;23.108;2022-12-11T07:16:18;1.20;;;1.05;;
62929;SDS011;49036;42.782;23.108;2022-12-11T07:18:47;3.42;;;1.55;;
62929;SDS011;49036;42.782;23.108;2022-12-11T07:21:14;7.38;;;2.00;;
62929;SDS011;49036;42.782;23.108;2022-12-11T07:23:40;1.23;;;0.93;;
62929;SDS011;49036;42.782;23.108;2022-12-11T07:26:06;1.55;;;1.13;;
62929;SDS011;49036;42.782;23.108;2022-12-11T07:28:34;3.88;;;1.08;;
62929;SDS011;49036;42.782;23.108;2022-12-11T07:31:07;4.15;;;1.30;;
62929;SDS011;49036;42.782;23.108;2022-12-11T07:33:34;3.08;;;1.00;;
62929;SDS011;49036;42.782;23.108;2022-12-11T07:36:00;2.38;;;1.20;;
62929;SDS011;49036;42.782;23.108;2022-12-11T07:38:27;3.58;;;1.35;;
62929;SDS011;49036;42.782;23.108;2022-12-11T07:40:53;2.65;;;1.60;;
62929;SDS011;49036;42.782;23.108;2022-12-11T07:43:19;5.60;;;1.50;;
62929;SDS011;49036;42.782;23.108;2022-12-11T07:45:44;0.93;;;0.93;;
62929;SDS011;49036;42.782;23.108;2022-12-11T07:48:10;2.03;;;1.10;;
62929;SDS011;49036;42.782;23.108;2022-12-11T07:50:36;1.15;;;0.80;;
62929;SDS011;49036;42.782;23.108;2022-12-11T07:53:02;0.90;;;0.77;;
62929;SDS011;49036;42.782;23.108;2022-12-11T07:55:28;4.82;;;1.08;;
62929;SDS011;49036;42.782;23.108;2022-12-11T07:57:53;2.72;;;1.02;;
62929;SDS011;49036;42.782;23.108;2022-12-11T08:00:19;1.80;;;1.10;;
62929;SDS011;49036;42.782;23.108;2022-12-11T08:02:44;2.70;;;1.20;;
62929;SDS011;49036;42.782;23.108;2022-12-11T08:05:10;0.73;;;0.57;;
62929;SDS011;49036;42.782;23.108;2022-12-11T08:07:37;3.40;;;1.20;;
62929;SDS011;49036;42.782;23.108;2022-12-11T08:10:03;1.90;;;0.93;;
62929;SDS011;49036;42.782;23.108;2022-12-11T08:12:28;4.47;;;1.90;;
62929;SDS011;49036;42.782;23.108;2022-12-11T08:14:54;2.47;;;1.00;;
62929;SDS011;49036;42.782;23.108;2022-12-11T08:17:19;4.63;;;1.63;;
62929;SDS011;49036;42.782;23.108;2022-12-11T08:19:45;1.15;;;0.70;;
62929;SDS011;49036;42.782;23.108;2022-12-11T08:22:10;0.80;;;0.80;;
62929;SDS011;49036;42.782;23.108;2022-12-11T08:24:37;1.23;;;1.00;;
62929;SDS011;49036;42.782;23.108;2022-12-11T08:27:02;2.22;;;1.00;;
62929;SDS011;49036;42.782;23.108;2022-12-11T08:29:28;4.35;;;0.90;;
62929;SDS011;49036;42.782;23.108;2022-12-11T08:31:53;2.92;;;0.93;;
62929;SDS011;49036;42.782;23.108;2022-12-11T08:34:19;0.75;;;0.75;;
62929;SDS011;49036;42.782;23.108;2022-12-11T08:36:44;5.97;;;1.27;;
62929;SDS011;49036;42.782;23.108;2022-12-11T08:39:10;3.58;;;1.17;;
62929;SDS011;49036;42.782;23.108;2022-12-11T08:41:35;3.10;;;1.10;;
62929;SDS011;49036;42.782;23.108;2022-12-11T08:44:01;1.00;;;0.77;;
62929;SDS011;49036;42.782;23.108;2022-12-11T08:46:28;1.58;;;1.00;;
62929;SDS011;49036;42.782;23.108;2022-12-11T08:50:31;0.77;;;0.57;;
62929;SDS011;49036;42.782;23.108;2022-12-11T08:52:56;1.65;;;0.90;;
62929;SDS011;49036;42.782;23.108;2022-12-11T08:55:22;1.05;;;0.80;;
62929;SDS011;49036;42.782;23.108;2022-12-11T08:57:48;4.53;;;1.63;;
62929;SDS011;49036;42.782;23.108;2022-12-11T09:00:13;0.50;;;0.50;;
62929;SDS011;49036;42.782;23.108;2022-12-11T09:02:40;1.48;;;0.70;;
62929;SDS011;49036;42.782;23.108;2022-12-11T09:05:05;1.67;;;0.70;;
62929;SDS011;49036;42.782;23.108;2022-12-11T09:07:33;0.32;;;0.32;;
62929;SDS011;49036;42.782;23.108;2022-12-11T09:09:59;1.05;;;0.70;;
62929;SDS011;49036;42.782;23.108;2022-12-11T09:12:25;1.38;;;0.50;;
62929;SDS011;49036;42.782;23.108;2022-12-11T09:14:51;0.85;;;0.50;;
62929;SDS011;49036;42.782;23.108;2022-12-11T09:17:16;1.85;;;0.63;;
62929;SDS011;49036;42.782;23.108;2022-12-11T09:19:42;2.65;;;1.08;;
62929;SDS011;49036;42.782;23.108;2022-12-11T09:22:08;0.50;;;0.40;;
62929;SDS011;49036;42.782;23.108;2022-12-11T09:24:35;2.40;;;1.02;;
62929;SDS011;49036;42.782;23.108;2022-12-11T09:27:01;1.30;;;0.60;;
62929;SDS011;49036;42.782;23.108;2022-12-11T09:29:28;2.40;;;1.30;;
62929;SDS011;49036;42.782;23.108;2022-12-11T09:31:53;2.15;;;0.73;;
62929;SDS011;49036;42.782;23.108;2022-12-11T09:34:19;2.10;;;0.60;;
62929;SDS011;49036;42.782;23.108;2022-12-11T09:36:45;1.80;;;0.68;;
62929;SDS011;49036;42.782;23.108;2022-12-11T09:39:11;3.97;;;0.82;;
62929;SDS011;49036;42.782;23.108;2022-12-11T09:41:39;0.80;;;0.70;;
62929;SDS011;49036;42.782;23.108;2022-12-11T09:46:35;2.70;;;0.80;;
62929;SDS011;49036;42.782;23.108;2022-12-11T09:49:04;2.70;;;1.08;;
62929;SDS011;49036;42.782;23.108;2022-12-11T09:51:48;2.03;;;0.70;;
62929;SDS011;49036;42.782;23.108;2022-12-11T09:54:22;2.63;;;1.52;;
62929;SDS011;49036;42.782;23.108;2022-12-11T10:12:50;1.35;;;0.80;;
62929;SDS011;49036;42.782;23.108;2022-12-11T10:16:09;1.92;;;1.30;;
62929;SDS011;49036;42.782;23.108;2022-12-11T10:18:21;3.00;;;0.90;;
62929;SDS011;49036;42.782;23.108;2022-12-11T10:20:49;1.75;;;0.65;;
62929;SDS011;49036;42.782;23.108;2022-12-11T10:23:37;2.78;;;1.00;;
62929;SDS011;49036;42.782;23.108;2022-12-11T10:26:26;1.95;;;0.90;;
62929;SDS011;49036;42.782;23.108;2022-12-11T10:28:53;3.00;;;1.05;;
62929;SDS011;49036;42.782;23.108;2022-12-11T10:34:03;1.08;;;0.98;;
62929;SDS011;49036;42.782;23.108;2022-12-11T10:36:31;1.63;;;1.20;;
62929;SDS011;49036;42.782;23.108;2022-12-11T10:39:01;2.05;;;0.90;;
62929;SDS011;49036;42.782;23.108;2022-12-11T10:44:13;1.75;;;1.35;;
62929;SDS011;49036;42.782;23.108;2022-12-11T10:46:41;2.28;;;1.00;;
62929;SDS011;49036;42.782;23.108;2022-12-11T10:49:17;2.08;;;0.80;;
62929;SDS011;49036;42.782;23.108;2022-12-11T10:51:54;0.88;;;0.80;;
62929;SDS011;49036;42.782;23.108;2022-12-11T10:54:32;1.90;;;0.60;;
62929;SDS011;49036;42.782;23.108;2022-12-11T10:57:01;0.80;;;0.80;;
62929;SDS011;49036;42.782;23.108;2022-12-11T10:59:29;1.42;;;0.77;;
62929;SDS011;49036;42.782;23.108;2022-12-11T11:04:55;1.17;;;0.80;;
62929;SDS011;49036;42.782;23.108;2022-12-11T11:07:27;2.95;;;1.13;;
62929;SDS011;49036;42.782;23.108;2022-12-11T11:10:13;2.83;;;0.60;;
62929;SDS011;49036;42.782;23.108;2022-12-11T11:12:45;2.38;;;0.70;;
62929;SDS011;49036;42.782;23.108;2022-12-11T11:15:21;2.80;;;1.42;;
62929;SDS011;49036;42.782;23.108;2022-12-11T11:17:53;1.83;;;1.20;;
62929;SDS011;49036;42.782;23.108;2022-12-11T11:20:27;2.42;;;1.70;;
62929;SDS011;49036;42.782;23.108;2022-12-11T11:22:56;3.25;;;1.60;;
62929;SDS011;49036;42.782;23.108;2022-12-11T11:25:25;1.50;;;1.40;;
62929;SDS011;49036;42.782;23.108;2022-12-11T11:27:55;1.75;;;1.17;;
62929;SDS011;49036;42.782;23.108;2022-12-11T11:30:25;2.75;;;1.25;;
62929;SDS011;49036;42.782;23.108;2022-12-11T11:33:01;2.03;;;1.35;;
62929;SDS011;49036;42.782;23.108;2022-12-11T11:35:30;1.45;;;1.45;;
62929;SDS011;49036;42.782;23.108;2022-12-11T11:43:25;2.08;;;1.60;;
62929;SDS011;49036;42.782;23.108;2022-12-11T11:48:35;2.25;;;2.05;;
62929;SDS011;49036;42.782;23.108;2022-12-11T11:51:20;2.25;;;1.80;;
62929;SDS011;49036;42.782;23.108;2022-12-11T11:53:51;2.15;;;1.70;;
62929;SDS011;49036;42.782;23.108;2022-12-11T11:56:30;1.75;;;1.65;;
62929;SDS011;49036;42.782;23.108;2022-12-11T11:59:22;4.38;;;2.55;;
62929;SDS011;49036;42.782;23.108;2022-12-11T12:01:54;1.88;;;1.73;;
62929;SDS011;49036;42.782;23.108;2022-12-11T12:04:21;2.33;;;1.95;;
62929;SDS011;49036;42.782;23.108;2022-12-11T12:07:30;2.60;;;2.40;;
62929;SDS011;49036;42.782;23.108;2022-12-11T12:09:52;2.80;;;1.77;;
62929;SDS011;49036;42.782;23.108;2022-12-11T12:15:21;2.28;;;1.60;;
62929;SDS011;49036;42.782;23.108;2022-12-11T12:18:12;7.88;;;2.58;;
62929;SDS011;49036;42.782;23.108;2022-12-11T12:34:36;6.35;;;2.00;;
62929;SDS011;49036;42.782;23.108;2022-12-11T12:48:00;2.85;;;1.90;;
62929;SDS011;49036;42.782;23.108;2022-12-11T12:50:28;2.80;;;1.60;;
62929;SDS011;49036;42.782;23.108;2022-12-11T12:53:01;2.42;;;1.92;;
62929;SDS011;49036;42.782;23.108;2022-12-11T12:55:29;1.75;;;1.33;;
62929;SDS011;49036;42.782;23.108;2022-12-11T12:57:57;1.50;;;1.40;;
62929;SDS011;49036;42.782;23.108;2022-12-11T13:00:37;3.75;;;1.23;;
62929;SDS011;49036;42.782;23.108;2022-12-11T13:05:44;1.88;;;1.70;;
62929;SDS011;49036;42.782;23.108;2022-12-11T13:08:23;1.83;;;1.50;;
62929;SDS011;49036;42.782;23.108;2022-12-11T13:10:55;2.85;;;2.10;;
62929;SDS011;49036;42.782;23.108;2022-12-11T13:13:33;1.38;;;1.27;;
62929;SDS011;49036;42.782;23.108;2022-12-11T13:16:22;1.27;;;1.05;;
62929;SDS011;49036;42.782;23.108;2022-12-11T13:18:49;2.08;;;1.02;;
62929;SDS011;49036;42.782;23.108;2022-12-11T13:21:25;1.50;;;1.27;;
62929;SDS011;49036;42.782;23.108;2022-12-11T13:23:54;1.73;;;1.52;;
62929;SDS011;49036;42.782;23.108;2022-12-11T13:26:36;1.60;;;1.50;;
62929;SDS011;49036;42.782;23.108;2022-12-11T13:29:02;3.20;;;1.85;;
62929;SDS011;49036;42.782;23.108;2022-12-11T13:31:32;1.60;;;1.13;;
62929;SDS011;49036;42.782;23.108;2022-12-11T13:34:20;1.48;;;1.38;;
62929;SDS011;49036;42.782;23.108;2022-12-11T13:36:48;1.77;;;1.13;;
62929;SDS011;49036;42.782;23.108;2022-12-11T13:39:17;1.50;;;1.30;;
62929;SDS011;49036;42.782;23.108;2022-12-11T13:41:47;0.95;;;0.90;;
62929;SDS011;49036;42.782;23.108;2022-12-11T13:44:22;1.85;;;0.98;;
62929;SDS011;49036;42.782;23.108;2022-12-11T13:46:51;2.22;;;1.60;;
62929;SDS011;49036;42.782;23.108;2022-12-11T13:49:21;0.80;;;0.80;;
62929;SDS011;49036;42.782;23.108;2022-12-11T13:51:59;1.50;;;1.40;;
62929;SDS011;49036;42.782;23.108;2022-12-11T13:54:26;1.23;;;1.17;;
62929;SDS011;49036;42.782;23.108;2022-12-11T13:56:53;1.23;;;1.17;;
62929;SDS011;49036;42.782;23.108;2022-12-11T14:01:59;2.15;;;1.77;;
62929;SDS011;49036;42.782;23.108;2022-12-11T14:04:28;1.80;;;1.40;;
62929;SDS011;49036;42.782;23.108;2022-12-11T14:06:55;1.80;;;1.67;;
62929;SDS011;49036;42.782;23.108;2022-12-11T14:09:23;1.63;;;1.33;;
62929;SDS011;49036;42.782;23.108;2022-12-11T14:11:51;1.42;;;1.33;;
62929;SDS011;49036;42.782;23.108;2022-12-11T14:14:19;2.08;;;1.15;;
62929;SDS011;49036;42.782;23.108;2022-12-11T14:16:48;1.05;;;1.05;;
62929;SDS011;49036;42.782;23.108;2022-12-11T14:19:16;1.52;;;1.30;;
62929;SDS011;49036;42.782;23.108;2022-12-11T14:21:54;1.27;;;1.05;;
62929;SDS011;49036;42.782;23.108;2022-12-11T14:24:28;1.67;;;1.38;;
62929;SDS011;49036;42.782;23.108;2022-12-11T14:26:55;2.88;;;1.20;;
62929;SDS011;49036;42.782;23.108;2022-12-11T14:29:30;1.20;;;1.00;;
62929;SDS011;49036;42.782;23.108;2022-12-11T14:31:59;1.15;;;1.00;;
62929;SDS011;49036;42.782;23.108;2022-12-11T14:34:32;1.27;;;0.95;;
62929;SDS011;49036;42.782;23.108;2022-12-11T14:37:01;5.38;;;1.10;;
62929;SDS011;49036;42.782;23.108;2022-12-11T14:42:34;1.58;;;1.33;;
62929;SDS011;49036;42.782;23.108;2022-12-11T14:45:13;1.95;;;1.50;;
62929;SDS011;49036;42.782;23.108;2022-12-11T14:47:53;3.85;;;1.60;;
62929;SDS011;49036;42.782;23.108;2022-12-11T14:50:24;1.58;;;1.33;;
62929;SDS011;49036;42.782;23.108;2022-12-11T14:53:04;1.92;;;1.17;;
62929;SDS011;49036;42.782;23.108;2022-12-11T14:55:34;1.85;;;1.75;;
62929;SDS011;49036;42.782;23.108;2022-12-11T14:58:05;2.72;;;1.73;;
62929;SDS011;49036;42.782;23.108;2022-12-11T15:00:41;1.80;;;1.42;;
62929;SDS011;49036;42.782;23.108;2022-12-11T15:03:20;1.92;;;1.58;;
62929;SDS011;49036;42.782;23.108;2022-12-11T15:05:51;2.65;;;2.13;;
62929;SDS011;49036;42.782;23.108;2022-12-11T15:13:36;2.35;;;1.80;;
62929;SDS011;49036;42.782;23.108;2022-12-11T15:16:12;1.50;;;1.38;;
62929;SDS011;49036;42.782;23.108;2022-12-11T15:18:39;2.08;;;1.80;;
62929;SDS011;49036;42.782;23.108;2022-12-11T15:21:07;2.25;;;1.27;;
62929;SDS011;49036;42.782;23.108;2022-12-11T15:23:46;1.60;;;1.50;;
62929;SDS011;49036;42.782;23.108;2022-12-11T15:26:15;3.30;;;1.90;;
62929;SDS011;49036;42.782;23.108;2022-12-11T15:28:41;4.55;;;2.03;;
62929;SDS011;49036;42.782;23.108;2022-12-11T15:33:49;3.22;;;1.73;;
62929;SDS011;49036;42.782;23.108;2022-12-11T15:36:21;5.43;;;2.22;;
62929;SDS011;49036;42.782;23.108;2022-12-11T15:41:26;1.95;;;1.75;;
62929;SDS011;49036;42.782;23.108;2022-12-11T15:43:57;5.25;;;2.88;;
62929;SDS011;49036;42.782;23.108;2022-12-11T15:46:26;3.45;;;2.58;;
62929;SDS011;49036;42.782;23.108;2022-12-11T15:48:52;2.97;;;2.63;;
62929;SDS011;49036;42.782;23.108;2022-12-11T15:51:17;4.00;;;2.38;;
62929;SDS011;49036;42.782;23.108;2022-12-11T15:53:43;3.75;;;2.40;;
62929;SDS011;49036;42.782;23.108;2022-12-11T15:56:12;4.25;;;2.78;;
62929;SDS011;49036;42.782;23.108;2022-12-11T15:58:44;2.53;;;2.30;;
62929;SDS011;49036;42.782;23.108;2022-12-11T16:01:12;3.90;;;2.35;;
62929;SDS011;49036;42.782;23.108;2022-12-11T16:03:37;2.33;;;2.13;;
62929;SDS011;49036;42.782;23.108;2022-12-11T16:06:03;2.40;;;1.48;;
62929;SDS011;49036;42.782;23.108;2022-12-11T16:08:28;1.73;;;1.60;;
62929;SDS011;49036;42.782;23.108;2022-12-11T16:10:54;2.00;;;1.77;;
62929;SDS011;49036;42.782;23.108;2022-12-11T16:13:20;2.97;;;2.28;;
62929;SDS011;49036;42.782;23.108;2022-12-11T16:15:46;2.35;;;1.92;;
62929;SDS011;49036;42.782;23.108;2022-12-11T16:18:14;5.43;;;2.60;;
62929;SDS011;49036;42.782;23.108;2022-12-11T16:20:42;4.55;;;2.90;;
62929;SDS011;49036;42.782;23.108;2022-12-11T16:25:38;5.18;;;4.05;;
62929;SDS011;49036;42.782;23.108;2022-12-11T16:28:05;4.15;;;2.45;;
62929;SDS011;49036;42.782;23.108;2022-12-11T16:32:58;2.35;;;2.15;;
62929;SDS011;49036;42.782;23.108;2022-12-11T16:35:23;4.55;;;2.92;;
62929;SDS011;49036;42.782;23.108;2022-12-11T16:37:49;4.97;;;3.20;;
62929;SDS011;49036;42.782;23.108;2022-12-11T16:40:16;4.10;;;3.42;;
62929;SDS011;49036;42.782;23.108;2022-12-11T16:42:42;5.95;;;3.45;;
62929;SDS011;49036;42.782;23.108;2022-12-11T16:45:17;4.22;;;2.63;;
62929;SDS011;49036;42.782;23.108;2022-12-11T16:47:45;3.55;;;2.75;;
62929;SDS011;49036;42.782;23.108;2022-12-11T16:50:11;5.00;;;4.53;;
62929;SDS011;49036;42.782;23.108;2022-12-11T16:52:38;4.47;;;3.05;;
62929;SDS011;49036;42.782;23.108;2022-12-11T16:55:04;5.38;;;4.00;;
62929;SDS011;49036;42.782;23.108;2022-12-11T16:57:30;3.00;;;2.63;;
62929;SDS011;49036;42.782;23.108;2022-12-11T16:59:55;1.85;;;1.65;;
62929;SDS011;49036;42.782;23.108;2022-12-11T17:02:21;2.20;;;2.03;;
62929;SDS011;49036;42.782;23.108;2022-12-11T17:04:47;2.25;;;1.95;;
62929;SDS011;49036;42.782;23.108;2022-12-11T17:07:13;4.20;;;3.15;;
62929;SDS011;49036;42.782;23.108;2022-12-11T17:09:39;3.17;;;2.75;;
62929;SDS011;49036;42.782;23.108;2022-12-11T17:12:05;2.08;;;1.80;;
62929;SDS011;49036;42.782;23.108;2022-12-11T17:14:31;3.47;;;3.13;;
62929;SDS011;49036;42.782;23.108;2022-12-11T17:16:57;4.15;;;2.53;;
62929;SDS011;49036;42.782;23.108;2022-12-11T17:19:22;2.22;;;1.75;;
62929;SDS011;49036;42.782;23.108;2022-12-11T17:21:48;2.35;;;1.83;;
62929;SDS011;49036;42.782;23.108;2022-12-11T17:24:15;2.60;;;1.88;;
62929;SDS011;49036;42.782;23.108;2022-12-11T17:26:42;1.67;;;1.58;;
62929;SDS011;49036;42.782;23.108;2022-12-11T17:29:11;2.15;;;1.90;;
62929;SDS011;49036;42.782;23.108;2022-12-11T17:31:37;2.50;;;1.80;;
62929;SDS011;49036;42.782;23.108;2022-12-11T17:34:03;3.75;;;3.45;;
62929;SDS011;49036;42.782;23.108;2022-12-11T17:36:29;6.35;;;2.88;;
62929;SDS011;49036;42.782;23.108;2022-12-11T17:38:55;3.83;;;2.35;;
62929;SDS011;49036;42.782;23.108;2022-12-11T17:41:21;5.85;;;2.40;;
62929;SDS011;49036;42.782;23.108;2022-12-11T17:43:48;2.97;;;2.30;;
62929;SDS011;49036;42.782;23.108;2022-12-11T17:46:16;5.53;;;3.28;;
62929;SDS011;49036;42.782;23.108;2022-12-11T17:48:42;3.30;;;2.67;;
62929;SDS011;49036;42.782;23.108;2022-12-11T17:51:08;4.22;;;2.78;;
62929;SDS011;49036;42.782;23.108;2022-12-11T17:53:37;4.78;;;2.60;;
62929;SDS011;49036;42.782;23.108;2022-12-11T17:56:03;5.22;;;3.13;;
62929;SDS011;49036;42.782;23.108;2022-12-11T17:58:31;4.00;;;3.10;;
62929;SDS011;49036;42.782;23.108;2022-12-11T18:00:57;6.18;;;3.70;;
62929;SDS011;49036;42.782;23.108;2022-12-11T18:03:24;4.50;;;3.45;;
62929;SDS011;49036;42.782;23.108;2022-12-11T18:05:51;3.97;;;2.45;;
62929;SDS011;49036;42.782;23.108;2022-12-11T18:08:19;3.97;;;3.30;;
62929;SDS011;49036;42.782;23.108;2022-12-11T18:10:46;4.15;;;3.25;;
62929;SDS011;49036;42.782;23.108;2022-12-11T18:13:12;2.60;;;2.08;;
62929;SDS011;49036;42.782;23.108;2022-12-11T18:15:39;5.32;;;2.83;;